Time;durP1;ratioP1;P1;durP2;ratioP2;P2;SDS_P1;SDS_P2;PMS_P1;PMS_P2;Temp;Humidity;BMP_temperature;BMP_pressure;BME280_temperature;BME280_humidity;BME280_pressure;Samples;Min_cycle;Max_cycle;Signal;HPM_P1;HPM_P2
2022/09/09 00:02:11;;;;;;;8.15;3.35;;;;;;;16.92;63.58;100720.97;5213832;28;20045;-41
2022/09/09 00:04:51;;;;;;;7.20;4.07;;;;;;;16.90;63.54;100720.31;5207948;28;20127;-47
2022/09/09 00:07:32;;;;;;;8.10;2.92;;;;;;;16.80;63.54;100704.66;5204902;28;20578;-41
2022/09/09 00:10:19;;;;;;;7.97;3.75;;;;;;;16.85;63.66;100706.75;5206837;28;20518;-47
2022/09/09 00:13:00;;;;;;;10.70;3.65;;;;;;;16.79;63.77;100702.19;5207916;28;20149;-45
2022/09/09 00:15:41;;;;;;;9.68;3.90;;;;;;;16.77;63.70;100698.91;5206981;28;20135;-39
2022/09/09 00:18:24;;;;;;;7.80;3.50;;;;;;;16.75;63.89;100698.22;5206232;28;20120;-43
2022/09/09 00:21:04;;;;;;;9.60;3.55;;;;;;;16.69;63.90;100699.00;5201756;28;20773;-43
2022/09/09 00:23:41;;;;;;;10.15;4.07;;;;;;;16.76;63.72;100707.91;5205694;28;20431;-42
2022/09/09 00:26:23;;;;;;;8.40;3.65;;;;;;;16.69;63.80;100704.31;5209179;28;20079;-44
2022/09/09 00:29:06;;;;;;;7.00;4.28;;;;;;;16.68;63.80;100702.69;5209111;28;20400;-45
2022/09/09 00:31:38;;;;;;;9.55;3.90;;;;;;;16.67;63.96;100714.38;5206015;28;20134;-44
2022/09/09 00:34:16;;;;;;;5.97;3.80;;;;;;;16.58;64.02;100709.19;5205801;28;20041;-45
2022/09/09 00:36:51;;;;;;;9.45;4.38;;;;;;;16.63;63.97;100711.28;5200021;28;20045;-34
2022/09/09 00:39:32;;;;;;;8.13;3.85;;;;;;;16.52;63.99;100693.13;5205278;28;20037;-44
2022/09/09 00:42:16;;;;;;;12.32;5.03;;;;;;;16.55;63.87;100701.56;5213493;28;20130;-39
2022/09/09 00:45:06;;;;;;;6.85;5.10;;;;;;;16.54;64.09;100705.25;5201830;28;20044;-41
2022/09/09 00:47:47;;;;;;;13.43;7.70;;;;;;;16.51;64.11;100710.97;5212395;28;20222;-42
2022/09/09 00:50:45;;;;;;;11.38;5.78;;;;;;;16.46;64.40;100705.38;5202691;28;20369;-41
2022/09/09 00:53:32;;;;;;;13.70;6.07;;;;;;;16.43;64.44;100703.09;5201809;28;20036;-32
2022/09/09 00:56:14;;;;;;;11.60;6.55;;;;;;;16.45;64.27;100711.72;5202712;28;20091;-41
2022/09/09 00:59:04;;;;;;;17.40;7.07;;;;;;;16.39;64.32;100701.84;5201341;28;20064;-38
2022/09/09 01:01:36;;;;;;;13.13;7.88;;;;;;;16.44;64.18;100696.72;5199150;28;20129;-41
2022/09/09 01:04:16;;;;;;;12.95;7.32;;;;;;;16.39;64.30;100699.16;5195515;28;20052;-37
2022/09/09 01:06:54;;;;;;;16.58;8.63;;;;;;;16.36;64.28;100695.03;5192972;28;20048;-40
2022/09/09 01:09:33;;;;;;;16.80;7.15;;;;;;;16.32;64.41;100698.25;5195747;28;20135;-44
2022/09/09 01:12:16;;;;;;;13.27;8.93;;;;;;;16.36;64.44;100707.53;5202066;28;20040;-42
2022/09/09 01:14:57;;;;;;;19.15;9.68;;;;;;;16.32;64.42;100704.44;5195521;28;20048;-42
2022/09/09 01:17:34;;;;;;;13.25;8.27;;;;;;;16.23;64.70;100694.94;5198013;28;20446;-41
2022/09/09 01:20:16;;;;;;;12.52;7.65;;;;;;;16.30;64.44;100703.81;5197404;28;20048;-41
2022/09/09 01:23:24;;;;;;;23.30;10.27;;;;;;;16.27;64.76;100700.69;5196581;28;20558;-41
2022/09/09 01:26:16;;;;;;;22.08;10.00;;;;;;;16.24;64.73;100701.06;5195596;28;20469;-41
2022/09/09 01:28:52;;;;;;;20.85;9.65;;;;;;;16.21;64.60;100696.94;5197452;28;20044;-41
2022/09/09 01:31:30;;;;;;;16.02;9.98;;;;;;;16.14;64.82;100690.72;5201620;28;20048;-42
2022/09/09 01:34:05;;;;;;;13.93;8.50;;;;;;;16.15;64.88;100697.72;5199613;28;20049;-44
2022/09/09 01:36:44;;;;;;;17.48;9.98;;;;;;;16.11;64.80;100689.28;5195480;28;23237;-42
2022/09/09 01:39:17;;;;;;;20.95;10.85;;;;;;;16.14;64.75;100696.88;5191974;28;20044;-46
2022/09/09 01:41:51;;;;;;;21.13;10.18;;;;;;;16.11;65.03;100686.59;5196908;28;20130;-43
2022/09/09 01:44:25;;;;;;;17.30;10.43;;;;;;;16.06;65.05;100689.00;5196934;28;20075;-45
2022/09/09 01:46:57;;;;;;;21.23;11.25;;;;;;;16.08;64.96;100692.31;5198551;28;20132;-42
2022/09/09 01:49:30;;;;;;;21.45;12.90;;;;;;;16.06;65.07;100686.34;5196357;28;20037;-46
2022/09/09 01:52:04;;;;;;;17.98;11.15;;;;;;;16.04;65.18;100687.53;5198257;28;20346;-47
2022/09/09 01:54:37;;;;;;;14.75;11.45;;;;;;;16.02;65.15;100687.75;5203580;28;20381;-41
2022/09/09 01:57:19;;;;;;;23.52;11.27;;;;;;;15.99;65.17;100688.13;5200573;28;20142;-42
2022/09/09 02:00:06;;;;;;;22.23;12.73;;;;;;;15.97;65.27;100689.31;5197723;28;20051;-42
2022/09/09 02:02:45;;;;;;;19.15;12.25;;;;;;;15.98;65.26;100683.81;5192350;28;20059;-44
2022/09/09 02:05:32;;;;;;;25.67;12.93;;;;;;;15.93;65.22;100678.22;5196023;28;20044;-45
2022/09/09 02:08:08;;;;;;;24.35;14.95;;;;;;;15.93;65.27;100672.06;5179744;28;20422;-42
2022/09/09 02:10:48;;;;;;;24.42;14.23;;;;;;;15.89;65.45;100682.28;5181293;28;20076;-42
2022/09/09 02:13:23;;;;;;;24.55;12.77;;;;;;;15.82;65.45;100673.38;5174199;28;20580;-43
2022/09/09 02:16:01;;;;;;;27.38;16.05;;;;;;;15.83;65.45;100672.38;5178542;28;20056;-47
2022/09/09 02:18:39;;;;;;;22.35;14.68;;;;;;;15.81;65.57;100669.06;5186549;28;20045;-47
2022/09/09 02:21:13;;;;;;;26.50;15.75;;;;;;;15.76;65.49;100677.59;5177543;28;20495;-46
2022/09/09 02:23:51;;;;;;;21.52;12.85;;;;;;;15.73;65.78;100667.34;5180446;28;20394;-40
2022/09/09 02:26:24;;;;;;;22.20;15.25;;;;;;;15.68;65.86;100667.91;5177073;28;20073;-42
2022/09/09 02:29:02;;;;;;;27.08;15.05;;;;;;;15.67;65.71;100668.09;5179808;28;20040;-44
2022/09/09 02:31:36;;;;;;;23.90;15.55;;;;;;;15.68;65.71;100665.25;5169733;28;20053;-45
2022/09/09 02:34:11;;;;;;;24.98;15.60;;;;;;;15.68;65.78;100670.56;5176686;28;21428;-42
2022/09/09 02:36:46;;;;;;;24.63;15.45;;;;;;;15.68;65.78;100664.44;5182219;28;20438;-40
2022/09/09 02:39:19;;;;;;;30.17;16.42;;;;;;;15.70;65.93;100662.41;5177600;28;20529;-40
2022/09/09 02:41:51;;;;;;;17.80;13.98;;;;;;;15.72;65.93;100662.22;5177286;28;20413;-40
2022/09/09 02:44:25;;;;;;;23.88;15.45;;;;;;;15.74;65.82;100655.69;5181494;28;20455;-39
2022/09/09 02:47:16;;;;;;;29.25;16.17;;;;;;;15.67;65.83;100646.81;5183252;28;20068;-37
2022/09/09 02:50:02;;;;;;;18.05;14.10;;;;;;;15.73;65.88;100662.00;5175614;28;20237;-40
2022/09/09 02:52:47;;;;;;;24.58;14.05;;;;;;;15.72;65.87;100659.53;5183792;28;20056;-40
2022/09/09 02:55:28;;;;;;;19.60;12.00;;;;;;;15.66;65.91;100655.75;5176213;28;20099;-44
2022/09/09 02:58:04;;;;;;;25.80;14.40;;;;;;;15.67;65.95;100665.44;5183682;28;20041;-43
2022/09/09 03:00:39;;;;;;;24.25;13.95;;;;;;;15.65;65.98;100660.25;5188054;28;20064;-43
2022/09/09 03:03:12;;;;;;;22.70;13.40;;;;;;;15.60;66.04;100652.00;5182497;28;20049;-44
2022/09/09 03:05:45;;;;;;;20.83;13.80;;;;;;;15.54;66.32;100652.75;5184401;28;20164;-39
2022/09/09 03:08:18;;;;;;;19.95;13.73;;;;;;;15.55;66.12;100664.25;5202011;28;20377;-32
2022/09/09 03:10:54;;;;;;;19.15;13.95;;;;;;;15.51;66.30;100663.78;5199275;28;20040;-42
2022/09/09 03:13:26;;;;;;;22.02;14.57;;;;;;;15.42;66.22;100654.25;5199450;28;20052;-36
2022/09/09 03:16:00;;;;;;;27.50;16.17;;;;;;;15.44;66.41;100657.56;5208142;28;20052;-41
2022/09/09 03:18:34;;;;;;;27.77;15.93;;;;;;;15.44;66.29;100662.88;5200964;28;20123;-41
2022/09/09 03:21:15;;;;;;;19.58;14.13;;;;;;;15.36;66.31;100639.00;5202746;28;20444;-38
2022/09/09 03:23:48;;;;;;;22.00;13.52;;;;;;;15.39;66.49;100662.59;5203822;28;20439;-41
2022/09/09 03:26:20;;;;;;;17.20;10.18;;;;;;;15.36;66.51;100654.97;5200523;28;20711;-45
2022/09/09 03:28:53;;;;;;;14.38;10.68;;;;;;;15.34;66.44;100652.53;5205923;28;20053;-40
2022/09/09 03:31:29;;;;;;;24.05;14.40;;;;;;;15.21;66.65;100642.53;5203925;28;20037;-43
2022/09/09 03:34:02;;;;;;;21.98;12.90;;;;;;;15.27;66.62;100645.44;5200302;28;20063;-40
2022/09/09 03:36:34;;;;;;;17.48;12.63;;;;;;;15.12;66.69;100632.19;5195863;28;20048;-45
2022/09/09 03:39:07;;;;;;;19.77;12.50;;;;;;;15.15;66.88;100642.47;5204047;28;20130;-44
2022/09/09 03:41:39;;;;;;;30.80;15.23;;;;;;;15.10;66.83;100640.34;5203327;28;20072;-43
2022/09/09 03:44:12;;;;;;;25.35;13.35;;;;;;;15.07;66.99;100630.06;5200393;28;20052;-41
2022/09/09 03:46:46;;;;;;;22.92;14.27;;;;;;;15.08;67.05;100637.06;5201908;28;20547;-41
2022/09/09 03:49:20;;;;;;;22.30;13.02;;;;;;;15.05;66.86;100625.94;5198489;28;20045;-40
2022/09/09 03:51:52;;;;;;;19.35;13.15;;;;;;;15.08;67.01;100631.72;5191868;28;20052;-45
2022/09/09 03:54:25;;;;;;;18.83;13.27;;;;;;;15.07;67.12;100639.88;5202005;28;20115;-34
2022/09/09 03:56:57;;;;;;;19.45;11.65;;;;;;;14.99;67.17;100624.84;5201333;28;20410;-42
2022/09/09 03:59:30;;;;;;;23.23;11.50;;;;;;;15.07;67.03;100634.56;5201439;28;20068;-43
2022/09/09 04:02:05;;;;;;;26.70;14.13;;;;;;;15.01;67.12;100630.78;5205904;28;20504;-42
2022/09/09 04:04:37;;;;;;;22.00;12.32;;;;;;;14.98;67.31;100615.22;5193105;28;20135;-40
2022/09/09 04:07:11;;;;;;;29.88;14.73;;;;;;;15.04;67.36;100630.44;5195540;28;20076;-39
2022/09/09 04:09:44;;;;;;;20.35;12.63;;;;;;;14.95;67.31;100615.56;5194253;28;20052;-40
2022/09/09 04:12:17;;;;;;;21.83;14.05;;;;;;;15.00;67.46;100629.16;5188012;28;20516;-42
2022/09/09 04:14:50;;;;;;;26.98;13.15;;;;;;;14.99;67.60;100619.53;5180818;28;20488;-45
2022/09/09 04:17:24;;;;;;;21.90;13.05;;;;;;;14.95;67.59;100615.56;5187322;28;20124;-39
2022/09/09 04:19:56;;;;;;;24.35;14.55;;;;;;;15.01;67.57;100624.66;5182221;28;20494;-40
2022/09/09 04:22:29;;;;;;;27.13;15.23;;;;;;;14.99;67.38;100606.25;5195216;28;20068;-42
2022/09/09 04:25:02;;;;;;;25.65;13.75;;;;;;;15.05;67.49;100610.81;5205376;28;20087;-41
2022/09/09 04:27:34;;;;;;;15.38;10.20;;;;;;;15.09;67.31;100611.28;5204543;28;20413;-42
2022/09/09 04:30:08;;;;;;;18.85;12.05;;;;;;;15.06;67.58;100599.16;5204676;28;20386;-41
2022/09/09 04:32:42;;;;;;;20.00;12.70;;;;;;;15.07;67.70;100599.97;5208672;28;20440;-39
2022/09/09 04:35:15;;;;;;;19.33;12.60;;;;;;;15.06;67.92;100599.16;5198906;28;20052;-38
2022/09/09 04:37:48;;;;;;;;;;;;;;;15.06;67.84;100599.16;5205271;28;20135;-45
2022/09/09 04:40:22;;;;;;;12.03;8.83;;;;;;;15.06;67.85;100601.81;5187735;28;20277;-43
2022/09/09 04:42:54;;;;;;;17.52;10.70;;;;;;;15.05;67.87;100600.19;5184348;28;20108;-45
2022/09/09 04:45:27;;;;;;;20.02;9.57;;;;;;;15.04;67.79;100597.69;5189905;28;20362;-40
2022/09/09 04:48:02;;;;;;;19.65;11.90;;;;;;;15.03;67.83;100602.19;5185037;28;20564;-39
2022/09/09 04:50:34;;;;;;;26.80;12.20;;;;;;;14.92;67.80;100594.66;5184134;28;20045;-40
2022/09/09 04:53:07;;;;;;;20.15;10.32;;;;;;;14.93;67.96;100597.16;5184549;28;20114;-42
2022/09/09 04:55:40;;;;;;;25.40;12.05;;;;;;;14.98;67.94;100604.56;5191945;28;20477;-38
2022/09/09 04:58:13;;;;;;;19.42;10.88;;;;;;;14.94;67.82;100584.69;5188390;28;20481;-41
2022/09/09 05:00:46;;;;;;;19.70;10.82;;;;;;;15.03;68.05;100602.19;5191778;28;20375;-41
2022/09/09 05:03:20;;;;;;;22.50;9.55;;;;;;;14.97;67.90;100593.13;5181431;28;20049;-32
2022/09/09 05:06:03;;;;;;;14.23;8.73;;;;;;;14.98;67.85;100599.25;5185351;28;20118;-41
2022/09/09 05:08:36;;;;;;;14.02;8.32;;;;;;;14.93;67.86;100589.19;5170000;28;20500;-41
2022/09/09 05:11:17;;;;;;;8.25;6.32;;;;;;;15.02;67.97;100592.56;5183290;28;20056;-42
2022/09/09 05:13:50;;;;;;;14.45;7.20;;;;;;;15.01;67.81;100603.38;5197425;28;20045;-43
2022/09/09 05:16:26;;;;;;;;;;;;;;;15.05;67.95;100602.84;5201070;28;20102;-42
2022/09/09 05:19:00;;;;;;;14.00;7.43;;;;;;;15.07;67.84;100603.47;5191442;28;19921;-45
2022/09/09 05:21:32;;;;;;;15.60;6.68;;;;;;;15.02;67.82;100594.38;5191812;28;20044;-42
2022/09/09 05:24:05;;;;;;;16.42;7.50;;;;;;;15.08;67.90;100602.47;5184186;28;20567;-42
2022/09/09 05:26:38;;;;;;;13.05;7.20;;;;;;;15.06;67.74;100596.50;5183987;28;20041;-43
2022/09/09 05:29:10;;;;;;;14.98;6.85;;;;;;;15.10;67.62;100597.78;5198873;28;20048;-40
2022/09/09 05:31:43;;;;;;;9.60;6.28;;;;;;;15.04;67.61;100587.06;5198977;28;20052;-42
2022/09/09 05:34:17;;;;;;;13.63;7.97;;;;;;;15.14;67.36;100593.75;5196631;28;20060;-41
2022/09/09 05:36:49;;;;;;;11.60;6.18;;;;;;;15.11;67.41;100583.50;5197697;28;20137;-37
2022/09/09 05:39:22;;;;;;;16.73;6.40;;;;;;;15.17;67.39;100580.09;5199910;28;20048;-47
2022/09/09 05:41:55;;;;;;;14.57;6.80;;;;;;;15.28;67.37;100588.59;5200758;28;20110;-45
2022/09/09 05:44:29;;;;;;;18.58;7.05;;;;;;;15.25;67.37;100573.81;5197261;28;20040;-43
2022/09/09 05:47:01;;;;;;;21.77;7.47;;;;;;;15.41;67.25;100599.38;5204697;28;20440;-41
2022/09/09 05:49:36;;;;;;;15.75;5.00;;;;;;;15.35;67.16;100584.97;5197448;28;20048;-41
2022/09/09 05:52:09;;;;;;;11.48;5.00;;;;;;;15.42;67.01;100595.69;5194540;28;20255;-45
2022/09/09 05:54:43;;;;;;;11.77;5.88;;;;;;;15.45;66.92;100600.66;5198850;28;20464;-43
2022/09/09 05:57:15;;;;;;;13.65;6.03;;;;;;;15.58;66.69;100603.47;5201674;28;20032;-43
2022/09/09 05:59:48;;;;;;;9.98;6.38;;;;;;;15.63;66.48;100590.41;5197682;28;20587;-41
2022/09/09 06:02:20;;;;;;;14.00;5.40;;;;;;;15.68;66.33;100585.38;5197361;28;20048;-41
2022/09/09 06:04:55;;;;;;;12.77;5.90;;;;;;;15.80;66.12;100598.19;5197570;28;20520;-38
2022/09/09 06:07:28;;;;;;;14.10;7.03;;;;;;;15.92;65.92;100602.00;5196371;28;20080;-41
2022/09/09 06:10:00;;;;;;;18.75;5.85;;;;;;;16.08;65.50;100601.72;5199765;28;20049;-41
2022/09/09 06:12:33;;;;;;;26.58;6.75;;;;;;;16.17;64.91;100586.44;5200208;28;20504;-39
2022/09/09 06:15:12;;;;;;;9.35;5.00;;;;;;;16.32;64.68;100583.66;5205113;28;20083;-40
2022/09/09 06:17:45;;;;;;;15.85;5.07;;;;;;;16.34;64.56;100584.31;5204211;28;20071;-42
2022/09/09 06:20:19;;;;;;;23.13;5.68;;;;;;;16.35;64.34;100586.78;5205992;28;20079;-42
2022/09/09 06:22:52;;;;;;;22.80;7.25;;;;;;;16.33;64.26;100598.66;5199090;28;20430;-37
2022/09/09 06:25:25;;;;;;;18.35;6.43;;;;;;;16.38;64.34;100596.22;5190041;28;20056;-40
2022/09/09 06:27:57;;;;;;;15.43;4.45;;;;;;;16.56;63.64;100609.88;5186779;28;20064;-42
2022/09/09 06:30:30;;;;;;;15.20;5.35;;;;;;;16.80;63.50;100605.97;5186710;28;20044;-44
2022/09/09 06:33:03;;;;;;;13.00;4.70;;;;;;;16.88;63.04;100605.00;5188159;28;20084;-39
2022/09/09 06:35:37;;;;;;;17.63;4.50;;;;;;;16.86;63.19;100593.72;5185580;28;20430;-39
2022/09/09 06:38:09;;;;;;;9.00;4.50;;;;;;;16.95;63.23;100607.72;5184455;28;20435;-41
2022/09/09 06:40:54;;;;;;;10.77;3.42;;;;;;;17.11;62.71;100595.88;5188469;28;20106;-42
2022/09/09 06:43:28;;;;;;;11.40;3.70;;;;;;;17.49;62.58;100604.22;5190189;28;20418;-43
2022/09/09 06:46:03;;;;;;;8.60;3.53;;;;;;;18.67;61.44;100591.16;5198684;28;20048;-41
2022/09/09 06:48:36;;;;;;;7.45;2.50;;;;;;;20.36;59.48;100589.06;5186454;28;20067;-40
2022/09/09 06:51:13;;;;;;;12.75;3.47;;;;;;;22.15;56.57;100594.09;5186977;28;21489;-42
2022/09/09 06:53:47;;;;;;;7.05;2.30;;;;;;;23.44;53.59;100578.59;5186920;28;20049;-44
2022/09/09 06:56:23;;;;;;;5.22;2.70;;;;;;;24.25;51.36;100593.72;5199742;28;20048;-43
2022/09/09 06:58:58;;;;;;;8.00;2.47;;;;;;;24.88;50.28;100592.50;5186225;28;20117;-42
2022/09/09 07:01:33;;;;;;;13.30;2.63;;;;;;;24.85;49.03;100593.00;5186450;28;20452;-42
2022/09/09 07:04:07;;;;;;;10.52;2.75;;;;;;;23.89;48.35;100579.69;5185507;28;20501;-42
2022/09/09 07:06:44;;;;;;;11.23;3.03;;;;;;;22.75;50.02;100600.06;5188138;28;20457;-41
2022/09/09 07:09:18;;;;;;;12.65;3.30;;;;;;;21.91;51.22;100595.91;5199577;28;20052;-41
2022/09/09 07:11:53;;;;;;;7.45;2.63;;;;;;;21.23;51.93;100588.97;5199098;28;20090;-45
2022/09/09 07:14:26;;;;;;;6.50;2.58;;;;;;;20.64;52.66;100581.38;5201424;28;20044;-41
2022/09/09 07:16:58;;;;;;;18.10;3.70;;;;;;;20.20;53.25;100591.25;5200898;28;20053;-43
2022/09/09 07:19:31;;;;;;;9.15;3.10;;;;;;;19.90;53.70;100590.25;5194049;28;20171;-42
2022/09/09 07:22:06;;;;;;;14.50;4.35;;;;;;;19.61;54.46;100580.94;5195281;28;20479;-44
2022/09/09 07:24:38;;;;;;;13.30;4.43;;;;;;;19.27;55.13;100586.47;5202250;28;20040;-46
2022/09/09 07:27:10;;;;;;;20.13;4.80;;;;;;;19.05;55.64;100598.53;5200804;28;20205;-41
2022/09/09 07:29:45;;;;;;;10.98;4.65;;;;;;;18.85;56.06;100594.03;5200108;28;20443;-40
2022/09/09 07:32:17;;;;;;;15.63;4.82;;;;;;;18.73;56.99;100597.56;5198402;28;20053;-40
2022/09/09 07:34:51;;;;;;;8.57;4.78;;;;;;;18.64;57.07;100596.94;5194711;28;20114;-40
2022/09/09 07:37:25;;;;;;;10.88;4.28;;;;;;;18.58;57.41;100597.75;5193488;28;20496;-42
2022/09/09 07:39:58;;;;;;;12.02;4.05;;;;;;;18.50;58.02;100595.31;5201748;28;20443;-42
2022/09/09 07:42:31;;;;;;;8.43;4.47;;;;;;;18.35;58.45;100593.69;5202251;28;20106;-43
2022/09/09 07:45:03;;;;;;;14.18;5.72;;;;;;;18.37;58.33;100596.97;5196690;28;20053;-41
2022/09/09 07:47:36;;;;;;;14.38;5.30;;;;;;;18.30;58.57;100587.28;5192240;28;20529;-50
2022/09/09 07:50:09;;;;;;;16.05;4.88;;;;;;;18.21;58.86;100584.03;5197705;28;20382;-43
2022/09/09 07:52:43;;;;;;;12.13;4.55;;;;;;;18.21;58.91;100600.06;5201445;28;20045;-41
2022/09/09 07:55:16;;;;;;;11.93;4.63;;;;;;;18.17;59.27;100601.50;5198613;28;20515;-35
2022/09/09 07:57:48;;;;;;;10.80;4.05;;;;;;;18.15;59.54;100598.22;5190225;28;20118;-42
2022/09/09 08:00:22;;;;;;;10.00;3.78;;;;;;;18.09;59.74;100597.19;5192264;28;20427;-40
2022/09/09 08:02:54;;;;;;;12.95;5.43;;;;;;;18.11;59.95;100596.97;5196487;28;20468;-42
2022/09/09 08:05:27;;;;;;;12.45;4.55;;;;;;;18.13;59.96;100594.91;5200312;28;20364;-39
2022/09/09 08:08:03;;;;;;;38.97;7.68;;;;;;;18.21;60.13;100597.41;5185883;28;20127;-42
2022/09/09 08:10:35;;;;;;;12.20;4.53;;;;;;;18.32;59.85;100601.28;5183278;28;20061;-41
2022/09/09 08:13:07;;;;;;;9.75;4.18;;;;;;;18.24;60.32;100599.66;5182973;28;20129;-41
2022/09/09 08:15:41;;;;;;;22.30;4.80;;;;;;;18.25;60.51;100592.47;5188608;28;20562;-43
2022/09/09 08:18:14;;;;;;;11.55;3.67;;;;;;;18.33;60.31;100597.56;5184419;28;20054;-40
2022/09/09 08:20:47;;;;;;;12.57;4.40;;;;;;;18.35;60.21;100588.34;5186625;28;20051;-42
2022/09/09 08:23:21;;;;;;;13.95;5.47;;;;;;;18.41;60.29;100592.84;5182740;28;20456;-43
2022/09/09 08:25:53;;;;;;;11.57;4.60;;;;;;;18.37;60.36;100596.97;5187914;28;21419;-43
2022/09/09 08:28:26;;;;;;;9.82;4.15;;;;;;;18.39;60.41;100589.56;5183208;28;20037;-46
2022/09/09 08:31:07;;;;;;;10.80;4.55;;;;;;;18.43;60.57;100600.69;5183843;28;20543;-42
2022/09/09 08:33:41;;;;;;;10.70;4.40;;;;;;;18.36;60.57;100589.97;5183833;28;20064;-41
2022/09/09 08:36:15;;;;;;;;;;;;;;;18.51;60.54;100596.94;5180673;28;20369;-40
2022/09/09 08:38:54;;;;;;;13.88;4.28;;;;;;;18.58;60.45;100595.09;5178781;28;19925;-45
2022/09/09 08:41:55;;;;;;;10.52;4.45;;;;;;;18.61;60.48;100597.34;5175271;28;20067;-44
2022/09/09 08:44:42;;;;;;;13.77;4.68;;;;;;;18.63;60.51;100597.97;5182580;28;20485;-40
2022/09/09 08:47:26;;;;;;;11.68;4.25;;;;;;;18.63;60.44;100606.00;5180802;28;20070;-44
2022/09/09 08:50:19;;;;;;;17.40;5.35;;;;;;;18.59;60.62;100610.13;5184639;28;20481;-43
2022/09/09 08:53:00;;;;;;;13.20;4.97;;;;;;;18.63;60.58;100597.97;5178103;28;20606;-40
2022/09/09 08:55:43;;;;;;;10.30;4.43;;;;;;;18.62;60.72;100607.03;5184066;28;20524;-41
2022/09/09 08:58:17;;;;;;;;;;;;;;;18.54;60.92;100623.28;5184812;28;20048;-38
2022/09/09 09:01:12;;;;;;;12.93;4.57;;;;;;;18.53;60.73;100602.94;5174503;28;20007;-42
2022/09/09 09:03:53;;;;;;;23.52;5.43;;;;;;;18.68;60.74;100608.88;5185952;28;20049;-50
2022/09/09 09:06:44;;;;;;;15.05;4.63;;;;;;;18.72;60.66;100607.41;5181111;28;20408;-42
2022/09/09 09:09:24;;;;;;;15.88;3.30;;;;;;;18.87;60.48;100596.50;5197743;28;20408;-44
2022/09/09 09:12:01;;;;;;;13.80;3.58;;;;;;;19.18;60.12;100608.34;5193260;28;20102;-44
2022/09/09 09:14:36;;;;;;;9.10;3.50;;;;;;;19.17;59.87;100612.88;5195720;28;20143;-50
2022/09/09 09:17:15;;;;;;;16.17;4.30;;;;;;;19.01;60.22;100613.34;5196986;28;20056;-41
2022/09/09 09:19:49;;;;;;;6.65;3.65;;;;;;;18.86;60.25;100601.03;5192594;28;20373;-43
2022/09/09 09:22:31;;;;;;;13.70;4.07;;;;;;;19.04;60.36;100620.94;5194741;28;20082;-43
2022/09/09 09:25:12;;;;;;;11.73;4.10;;;;;;;19.09;60.16;100611.25;5196677;28;20435;-44
2022/09/09 09:28:05;;;;;;;8.82;3.35;;;;;;;18.95;60.28;100606.16;5198794;28;20052;-43
2022/09/09 09:30:43;;;;;;;15.67;4.90;;;;;;;18.94;60.49;100629.41;5200613;28;20288;-44
2022/09/09 09:33:22;;;;;;;12.57;3.88;;;;;;;18.83;60.68;100632.75;5203640;28;20307;-41
2022/09/09 09:35:55;;;;;;;17.77;5.15;;;;;;;18.67;60.98;100628.59;5196551;28;20550;-42
2022/09/09 09:38:29;;;;;;;12.32;4.57;;;;;;;18.66;61.04;100637.66;5196547;28;20045;-40
2022/09/09 09:41:02;;;;;;;20.48;5.28;;;;;;;18.79;60.95;100639.53;5201447;28;20135;-43
2022/09/09 09:43:37;;;;;;;;;;;;;;;18.84;60.89;100635.22;5199665;28;20507;-41
2022/09/09 09:46:25;;;;;;;12.55;4.65;;;;;;;18.84;61.02;100631.72;5201470;28;21498;-39
2022/09/09 09:49:01;;;;;;;11.20;3.60;;;;;;;18.83;60.90;100630.91;5196385;28;20045;-42
2022/09/09 09:51:36;;;;;;;8.15;3.78;;;;;;;18.84;60.93;100623.69;5197560;28;20078;-42
2022/09/09 09:54:22;;;;;;;12.68;3.95;;;;;;;18.74;61.31;100629.47;5201736;28;20075;-42
2022/09/09 09:56:55;;;;;;;10.73;4.00;;;;;;;18.75;61.31;100625.75;5197414;28;20082;-40
2022/09/09 09:59:39;;;;;;;12.40;3.35;;;;;;;18.78;61.31;100630.69;5200472;28;20121;-42
2022/09/09 10:02:24;;;;;;;16.85;4.47;;;;;;;18.88;61.18;100625.72;5198424;28;20094;-43
2022/09/09 10:05:05;;;;;;;14.18;3.45;;;;;;;19.00;60.76;100627.75;5197226;28;20123;-43
2022/09/09 10:07:38;;;;;;;11.82;4.05;;;;;;;19.04;60.68;100628.97;5197513;28;20049;-39
2022/09/09 10:10:18;;;;;;;13.50;4.68;;;;;;;19.07;60.50;100633.91;5195439;28;20346;-40
2022/09/09 10:13:04;;;;;;;9.95;3.42;;;;;;;19.06;60.74;100616.22;5195312;28;20048;-42
2022/09/09 10:15:50;;;;;;;12.25;3.53;;;;;;;19.34;60.14;100619.38;5201126;28;20198;-43
2022/09/09 10:18:55;;;;;;;11.70;4.60;;;;;;;19.71;59.56;100619.66;5196039;28;20435;-45
2022/09/09 10:22:00;;;;;;;15.07;4.25;;;;;;;20.16;58.95;100616.88;5179079;28;20380;-37
2022/09/09 10:25:06;;;;;;;13.77;4.35;;;;;;;20.56;57.74;100613.03;5195813;28;20497;-42
2022/09/09 10:27:53;;;;;;;8.25;3.13;;;;;;;20.92;56.96;100620.31;5197906;28;20357;-36
2022/09/09 10:30:33;;;;;;;10.18;3.00;;;;;;;21.03;56.66;100618.75;5197660;28;20048;-42
2022/09/09 10:33:15;;;;;;;5.40;2.47;;;;;;;20.96;56.66;100610.75;5201963;28;20068;-40
2022/09/09 10:35:59;;;;;;;7.40;2.50;;;;;;;20.83;56.58;100624.34;5195264;28;20575;-44
2022/09/09 10:38:41;;;;;;;15.90;3.20;;;;;;;20.49;57.48;100616.56;5193082;28;20401;-43
2022/09/09 10:41:21;;;;;;;11.48;3.58;;;;;;;20.55;57.21;100609.53;5201192;28;20131;-42
2022/09/09 10:44:15;;;;;;;11.75;3.55;;;;;;;20.54;57.53;100607.09;5190878;28;20429;-44
2022/09/09 10:47:09;;;;;;;12.70;2.42;;;;;;;20.39;57.74;100610.09;5202977;28;20474;-39
2022/09/09 10:50:08;;;;;;;14.60;3.47;;;;;;;20.38;57.84;100605.78;5198664;28;20059;-47
2022/09/09 10:52:50;;;;;;;14.18;3.13;;;;;;;20.39;58.05;100610.91;5195999;28;20044;-47
2022/09/09 10:55:28;;;;;;;11.95;3.67;;;;;;;20.54;57.92;100618.66;5197230;28;20047;-43
2022/09/09 10:58:23;;;;;;;16.23;4.07;;;;;;;20.74;57.74;100599.66;5200346;28;20405;-42
2022/09/09 11:01:02;;;;;;;9.40;3.08;;;;;;;21.05;57.07;100606.75;5191207;28;20049;-44
2022/09/09 11:03:36;;;;;;;12.18;3.55;;;;;;;21.23;56.86;100600.53;5199941;28;20052;-44
2022/09/09 11:06:17;;;;;;;17.13;3.53;;;;;;;21.49;56.78;100610.13;5198803;28;20352;-38
2022/09/09 11:08:50;;;;;;;13.00;3.25;;;;;;;21.57;56.25;100596.41;5192058;28;20045;-32
2022/09/09 11:11:30;;;;;;;14.75;3.45;;;;;;;21.67;55.91;100603.91;5203838;28;20036;-43
2022/09/09 11:14:10;;;;;;;16.42;2.78;;;;;;;21.53;56.35;100595.22;5202179;28;20117;-37
2022/09/09 11:16:48;;;;;;;6.97;2.15;;;;;;;21.41;56.67;100603.22;5200798;28;20480;-43
2022/09/09 11:19:26;;;;;;;7.30;2.47;;;;;;;21.23;57.07;100599.72;5202115;28;20076;-41
2022/09/09 11:22:01;;;;;;;9.02;2.70;;;;;;;21.12;57.31;100594.06;5202886;28;20102;-42
2022/09/09 11:24:40;;;;;;;10.75;3.00;;;;;;;21.17;57.79;100596.06;5205226;28;20457;-43
2022/09/09 11:27:19;;;;;;;6.53;2.00;;;;;;;20.93;57.80;100587.06;5199919;28;20150;-45
2022/09/09 11:30:35;;;;;;;8.32;2.00;;;;;;;20.80;57.92;100589.91;5196980;28;20373;-43
2022/09/09 11:33:49;;;;;;;6.93;3.03;;;;;;;20.80;58.55;100597.94;5196623;28;20048;-43
2022/09/09 11:36:48;;;;;;;7.82;3.13;;;;;;;20.79;58.33;100593.63;5199020;28;20159;-45
2022/09/09 11:39:46;;;;;;;7.93;2.35;;;;;;;20.88;58.55;100586.91;5201437;28;20378;-44
2022/09/09 11:42:22;;;;;;;7.55;2.05;;;;;;;20.91;58.37;100597.22;5201034;28;20040;-45
2022/09/09 11:44:56;;;;;;;7.35;2.50;;;;;;;20.85;58.74;100598.09;5202516;28;20440;-43
2022/09/09 11:47:31;;;;;;;6.78;1.98;;;;;;;20.89;58.63;100591.25;5206260;28;20040;-42
2022/09/09 11:50:28;;;;;;;6.55;1.98;;;;;;;20.75;58.89;100587.03;5216081;28;20047;-48
2022/09/09 11:53:23;;;;;;;6.25;1.85;;;;;;;20.67;59.35;100602.41;5207382;28;20086;-43
2022/09/09 11:56:12;;;;;;;5.72;2.15;;;;;;;20.56;59.77;100597.75;5206172;28;20041;-45
2022/09/09 11:58:56;;;;;;;4.55;1.90;;;;;;;20.72;59.45;100593.72;5202741;28;20048;-41
2022/09/09 12:01:38;;;;;;;12.80;3.20;;;;;;;20.83;59.25;100606.38;5200267;28;20520;-40
2022/09/09 12:04:39;;;;;;;6.13;2.55;;;;;;;20.74;59.21;100596.97;5200831;28;20114;-41
2022/09/09 12:07:31;;;;;;;9.63;3.05;;;;;;;20.48;59.73;100587.31;5173418;28;20078;-44